Time;durP1;ratioP1;P1;durP2;ratioP2;P2;SDS_P1;SDS_P2;PMS_P1;PMS_P2;Temp;Humidity;BMP_temperature;BMP_pressure;BME280_temperature;BME280_humidity;BME280_pressure;Samples;Min_cycle;Max_cycle;Signal;HPM_P1;HPM_P2
2022/04/18 00:02:12;;;;;;;18.35;9.43;;;8.30;63.00;;;;;;5001943;28;20471;-86
2022/04/18 00:04:38;;;;;;;18.02;10.13;;;8.30;62.60;;;;;;4998083;28;20090;-84
2022/04/18 00:07:04;;;;;;;19.08;9.75;;;8.30;62.70;;;;;;4999307;28;20062;-84
2022/04/18 00:09:30;;;;;;;14.40;7.80;;;8.20;62.90;;;;;;4997006;28;20040;-85
2022/04/18 00:11:57;;;;;;;15.80;8.20;;;8.20;63.10;;;;;;4998663;28;20018;-81
2022/04/18 00:14:23;;;;;;;15.65;7.95;;;8.20;63.40;;;;;;4998826;28;20446;-85
2022/04/18 00:16:49;;;;;;;15.45;8.10;;;8.10;63.30;;;;;;4997169;28;20022;-85
2022/04/18 00:19:15;;;;;;;16.67;9.52;;;7.90;65.10;;;;;;4997635;28;20033;-85
2022/04/18 00:21:40;;;;;;;20.35;10.57;;;7.80;67.80;;;;;;4997833;28;20038;-86
2022/04/18 00:24:06;;;;;;;18.73;9.32;;;7.60;68.90;;;;;;4997299;28;20042;-85
2022/04/18 00:26:32;;;;;;;21.80;11.55;;;7.40;69.80;;;;;;4997445;28;20034;-85
2022/04/18 00:28:57;;;;;;;15.73;9.55;;;7.10;72.40;;;;;;4995881;28;20030;-87
2022/04/18 00:31:23;;;;;;;17.13;9.95;;;7.10;71.70;;;;;;4995204;28;20022;-83
2022/04/18 00:33:48;;;;;;;16.58;8.88;;;7.00;72.30;;;;;;4997160;28;20038;-83
2022/04/18 00:36:14;;;;;;;15.82;9.18;;;6.90;71.70;;;;;;4997362;28;20097;-83
2022/04/18 00:38:40;;;;;;;16.38;8.75;;;6.90;71.40;;;;;;4997902;28;20076;-84
2022/04/18 00:41:06;;;;;;;17.70;9.82;;;6.90;71.50;;;;;;4997531;28;20030;-86
2022/04/18 00:43:45;;;;;;;20.90;12.80;;;6.80;72.90;;;;;;4997112;28;20138;-86
2022/04/18 00:46:11;;;;;;;23.13;12.23;;;6.60;78.00;;;;;;5015954;28;20075;-82
2022/04/18 00:48:37;;;;;;;24.27;13.50;;;6.40;81.30;;;;;;5021532;28;20034;-84
2022/04/18 00:51:04;;;;;;;24.20;13.52;;;6.20;85.30;;;;;;5022830;28;20053;-85
2022/04/18 00:53:31;;;;;;;23.85;13.85;;;6.00;90.90;;;;;;5019706;28;20036;-84
2022/04/18 00:55:57;;;;;;;23.42;13.73;;;5.80;96.80;;;;;;5015350;28;20076;-84
2022/04/18 00:58:23;;;;;;;24.23;14.70;;;5.60;99.90;;;;;;5015586;28;20509;-86
2022/04/18 01:00:48;;;;;;;23.88;14.20;;;5.30;99.90;;;;;;5018537;28;20030;-85
2022/04/18 01:03:14;;;;;;;25.48;13.50;;;5.10;99.90;;;;;;5018242;28;20145;-83
2022/04/18 01:05:41;;;;;;;24.55;13.27;;;5.00;99.90;;;;;;5018913;28;20041;-81
2022/04/18 01:08:07;;;;;;;19.70;11.13;;;4.90;99.90;;;;;;5016075;28;20100;-84
2022/04/18 01:10:33;;;;;;;21.15;11.55;;;4.80;99.90;;;;;;5015930;28;20440;-85
2022/04/18 01:13:00;;;;;;;24.35;12.07;;;4.90;99.90;;;;;;5018878;28;20422;-84
2022/04/18 01:15:26;;;;;;;22.20;11.82;;;4.90;99.90;;;;;;5018825;28;20026;-82
2022/04/18 01:17:51;;;;;;;17.92;10.63;;;5.00;99.90;;;;;;5022089;28;20088;-84
2022/04/18 01:20:17;;;;;;;21.77;12.10;;;5.00;99.90;;;;;;5020553;28;20026;-85
2022/04/18 01:22:44;;;;;;;21.30;12.07;;;5.00;99.90;;;;;;5020826;28;20049;-84
2022/04/18 01:30:39;;;;;;;22.88;12.23;;;4.50;99.90;;;;;;5020736;28;20402;-83
2022/04/18 01:33:05;;;;;;;22.90;11.65;;;4.40;99.90;;;;;;5020222;28;20029;-83
2022/04/18 01:35:30;;;;;;;21.65;11.88;;;4.40;99.90;;;;;;5018723;28;20021;-86
2022/04/18 01:37:56;;;;;;;20.73;11.80;;;4.30;99.90;;;;;;5018922;28;20030;-85
2022/04/18 01:40:21;;;;;;;22.73;12.00;;;4.20;99.90;;;;;;5019237;28;20021;-84
2022/04/18 01:42:47;;;;;;;19.50;11.82;;;4.10;99.90;;;;;;5020376;28;20030;-82
2022/04/18 01:45:12;;;;;;;19.73;11.90;;;4.10;99.90;;;;;;5009332;28;20034;-84
2022/04/18 01:47:38;;;;;;;23.45;12.50;;;4.00;99.90;;;;;;5001869;28;20027;-85
2022/04/18 01:50:04;;;;;;;20.95;11.38;;;4.00;99.90;;;;;;5000684;28;20106;-86
2022/04/18 01:52:30;;;;;;;23.67;12.57;;;4.00;99.90;;;;;;4999771;28;20026;-85
2022/04/18 01:54:56;;;;;;;20.58;10.95;;;4.00;99.90;;;;;;4999701;28;20096;-85
2022/04/18 01:57:21;;;;;;;21.02;11.00;;;4.00;99.90;;;;;;4999070;28;20034;-85
2022/04/18 01:59:47;;;;;;;18.33;10.18;;;3.90;99.90;;;;;;4999484;28;20057;-84
2022/04/18 02:02:12;;;;;;;21.30;11.00;;;3.90;99.90;;;;;;5000410;28;20041;-85
2022/04/18 02:04:38;;;;;;;18.80;10.50;;;3.90;99.90;;;;;;5000464;28;20374;-86
2022/04/18 02:07:04;;;;;;;26.08;11.07;;;3.80;99.90;;;;;;5002119;28;20036;-86
2022/04/18 02:09:30;;;;;;;21.88;11.00;;;3.70;99.90;;;;;;4998890;28;20026;-83
2022/04/18 02:11:55;;;;;;;18.10;9.57;;;3.70;99.90;;;;;;4996642;28;20050;-82
2022/04/18 02:14:21;;;;;;;17.88;11.15;;;3.60;99.90;;;;;;4997020;28;20072;-82
2022/04/18 02:16:47;;;;;;;23.88;11.90;;;3.60;99.90;;;;;;4997063;28;20096;-86
2022/04/18 02:19:12;;;;;;;16.35;9.80;;;3.70;99.90;;;;;;4997326;28;20117;-84
2022/04/18 02:21:38;;;;;;;18.90;9.98;;;3.70;99.90;;;;;;4998757;28;20101;-84
2022/04/18 02:24:03;;;;;;;17.70;10.27;;;3.80;99.90;;;;;;4998163;28;20129;-82
2022/04/18 02:26:29;;;;;;;18.83;11.27;;;3.80;99.90;;;;;;4999588;28;20061;-84
2022/04/18 02:28:55;;;;;;;20.52;11.18;;;3.80;99.90;;;;;;4996804;28;20121;-83
2022/04/18 02:31:21;;;;;;;19.52;10.55;;;3.80;99.90;;;;;;4998430;28;20026;-86
2022/04/18 02:33:46;;;;;;;24.40;12.73;;;3.80;99.90;;;;;;4997839;28;20053;-84
2022/04/18 02:36:12;;;;;;;23.75;12.43;;;3.70;99.90;;;;;;4999053;28;20064;-81
2022/04/18 02:38:38;;;;;;;22.65;12.25;;;3.60;99.90;;;;;;5002305;28;20021;-82
2022/04/18 02:41:03;;;;;;;22.73;13.32;;;3.60;99.90;;;;;;4999370;28;20065;-83
2022/04/18 02:43:29;;;;;;;25.77;13.70;;;3.60;99.90;;;;;;4998422;28;20030;-83
2022/04/18 02:45:54;;;;;;;23.55;12.77;;;3.70;99.90;;;;;;5012436;28;20030;-83
2022/04/18 02:48:20;;;;;;;23.55;13.02;;;3.80;99.90;;;;;;5018643;28;20100;-85
2022/04/18 02:50:45;;;;;;;25.13;12.80;;;3.80;99.90;;;;;;5017866;28;20257;-85
2022/04/18 02:53:11;;;;;;;25.02;12.63;;;3.80;99.90;;;;;;5020381;28;20056;-85
2022/04/18 02:55:36;;;;;;;20.80;12.88;;;3.70;99.90;;;;;;5021605;28;20026;-83
2022/04/18 02:58:02;;;;;;;24.73;12.45;;;3.60;99.90;;;;;;5017597;28;20038;-84
2022/04/18 03:00:28;;;;;;;20.48;10.90;;;3.60;99.90;;;;;;5017330;28;20041;-86
2022/04/18 03:02:53;;;;;;;21.55;11.95;;;3.60;99.90;;;;;;5016946;28;20026;-85
2022/04/18 03:05:19;;;;;;;23.65;12.20;;;3.50;99.90;;;;;;5019198;28;20026;-83
2022/04/18 03:07:44;;;;;;;18.10;11.32;;;3.50;99.90;;;;;;5018693;28;20021;-86
2022/04/18 03:10:10;;;;;;;24.95;13.45;;;3.50;99.90;;;;;;5019003;28;20239;-81
2022/04/18 03:12:36;;;;;;;24.27;12.45;;;3.40;99.90;;;;;;5022868;28;20080;-80
2022/04/18 03:15:01;;;;;;;27.38;12.90;;;3.50;99.90;;;;;;5023931;28;20046;-81
2022/04/18 03:17:27;;;;;;;32.78;14.70;;;3.60;99.90;;;;;;5023312;28;20049;-82
2022/04/18 03:19:53;;;;;;;23.40;12.05;;;3.70;99.90;;;;;;5023339;28;20038;-81
2022/04/18 03:22:19;;;;;;;20.33;11.15;;;3.90;99.90;;;;;;5023873;28;20030;-82
2022/04/18 03:24:45;;;;;;;18.58;10.63;;;4.10;99.90;;;;;;5024353;28;20435;-82
2022/04/18 03:27:11;;;;;;;20.38;11.48;;;4.20;99.90;;;;;;5017834;28;20052;-81
2022/04/18 03:29:37;;;;;;;22.23;11.32;;;4.40;99.90;;;;;;5018856;28;20022;-81
2022/04/18 03:32:03;;;;;;;21.75;10.95;;;4.40;99.90;;;;;;5019050;28;20030;-80
2022/04/18 03:34:29;;;;;;;16.30;10.55;;;4.30;99.90;;;;;;5018960;28;20061;-79
2022/04/18 03:39:51;;;;;;;18.75;10.73;;;4.10;99.90;;;;;;5016803;28;20028;-80
2022/04/18 03:42:30;;;;;;;17.73;10.80;;;4.10;99.90;;;;;;5016133;28;20025;-81
2022/04/18 03:44:58;;;;;;;20.48;11.15;;;4.00;99.90;;;;;;5011445;28;20022;-82
2022/04/18 03:47:24;;;;;;;18.10;10.80;;;4.00;99.90;;;;;;4996373;28;20073;-80
2022/04/18 03:49:50;;;;;;;17.83;10.10;;;3.90;99.90;;;;;;4997340;28;20030;-80
2022/04/18 03:52:16;;;;;;;18.58;9.80;;;3.70;99.90;;;;;;4997882;28;20497;-81
2022/04/18 03:54:43;;;;;;;17.80;9.50;;;3.80;99.90;;;;;;4997713;28;20185;-80
2022/04/18 03:57:11;;;;;;;18.25;9.85;;;3.80;99.90;;;;;;4997710;28;20390;-80
2022/04/18 03:59:37;;;;;;;15.43;9.23;;;3.70;99.90;;;;;;4997202;28;20084;-80
2022/04/18 04:02:03;;;;;;;20.48;9.77;;;3.80;99.90;;;;;;4997965;28;20042;-81
2022/04/18 04:04:29;;;;;;;19.17;10.27;;;3.80;99.90;;;;;;4996191;28;20033;-81
2022/04/18 04:06:55;;;;;;;14.65;8.80;;;3.80;99.90;;;;;;4996598;28;20109;-80
2022/04/18 04:09:20;;;;;;;15.38;8.60;;;3.90;99.90;;;;;;4998586;28;20073;-82
2022/04/18 04:11:46;;;;;;;13.60;8.13;;;4.10;99.90;;;;;;4998006;28;20022;-80
2022/04/18 04:14:12;;;;;;;14.05;7.88;;;4.10;99.90;;;;;;4998293;28;20024;-81
2022/04/18 04:16:40;;;;;;;15.23;7.88;;;4.00;99.90;;;;;;4998382;28;20023;-83
2022/04/18 04:19:07;;;;;;;15.07;8.63;;;3.70;99.90;;;;;;4997177;28;20026;-81
2022/04/18 04:21:33;;;;;;;16.85;8.95;;;3.60;99.90;;;;;;4997480;28;20134;-81
2022/04/18 04:23:59;;;;;;;12.25;8.05;;;3.50;99.90;;;;;;4999957;28;20030;-81
2022/04/18 04:26:25;;;;;;;14.05;8.20;;;3.30;99.90;;;;;;5000320;28;20023;-82
2022/04/18 04:28:51;;;;;;;15.32;8.55;;;3.20;99.90;;;;;;4998935;28;20481;-81
2022/04/18 04:31:17;;;;;;;12.55;8.20;;;3.10;99.90;;;;;;5001301;28;20054;-82
2022/04/18 04:33:43;;;;;;;19.02;9.05;;;3.10;99.90;;;;;;4998519;28;20283;-81
2022/04/18 04:36:08;;;;;;;13.65;8.30;;;3.10;99.90;;;;;;5000156;28;20018;-82
2022/04/18 04:38:34;;;;;;;14.20;8.60;;;3.10;99.90;;;;;;5000194;28;20081;-81
2022/04/18 04:40:59;;;;;;;15.32;8.85;;;3.00;99.90;;;;;;5000213;28;20069;-81
2022/04/18 04:43:28;;;;;;;15.98;9.18;;;2.90;99.90;;;;;;5001239;28;20034;-80
2022/04/18 04:46:00;;;;;;;16.58;9.32;;;3.00;99.90;;;;;;5015659;28;20030;-83
2022/04/18 04:48:25;;;;;;;16.40;9.27;;;3.00;99.90;;;;;;5020620;28;20101;-83
2022/04/18 04:50:51;;;;;;;16.65;8.80;;;3.00;99.90;;;;;;5027015;28;20029;-82
2022/04/18 04:53:17;;;;;;;18.75;9.48;;;3.00;99.90;;;;;;5029354;28;20022;-82
2022/04/18 04:55:42;;;;;;;15.43;8.27;;;3.00;99.90;;;;;;5030223;28;20485;-80
2022/04/18 04:58:12;;;;;;;13.10;8.10;;;3.00;99.90;;;;;;5031640;28;20081;-82
2022/04/18 05:00:38;;;;;;;16.02;8.63;;;2.90;99.90;;;;;;5030586;28;20153;-83
2022/04/18 05:03:05;;;;;;;15.15;8.85;;;3.00;99.90;;;;;;5023051;28;20029;-81
2022/04/18 05:05:32;;;;;;;16.95;8.95;;;3.00;99.90;;;;;;5024428;28;20504;-81
2022/04/18 05:07:57;;;;;;;15.38;8.27;;;3.00;99.90;;;;;;5024670;28;20021;-80
2022/04/18 05:10:23;;;;;;;12.20;7.85;;;3.10;99.90;;;;;;5025806;28;20033;-81
2022/04/18 05:12:49;;;;;;;18.33;10.30;;;3.20;99.90;;;;;;5026850;28;20030;-81
2022/04/18 05:15:14;;;;;;;18.10;10.15;;;3.30;99.90;;;;;;5025112;28;20083;-80
2022/04/18 05:17:40;;;;;;;16.95;10.88;;;3.40;99.90;;;;;;5025483;28;20029;-81
2022/04/18 05:20:06;;;;;;;17.35;9.93;;;3.60;99.90;;;;;;5026368;28;20081;-82
2022/04/18 05:22:32;;;;;;;15.60;9.30;;;3.70;99.90;;;;;;5024188;28;20077;-80
2022/04/18 05:24:58;;;;;;;16.90;10.10;;;3.90;99.90;;;;;;5026365;28;20038;-81
2022/04/18 05:27:24;;;;;;;18.33;10.10;;;4.10;99.90;;;;;;5024061;28;20088;-81
2022/04/18 05:29:50;;;;;;;18.95;10.70;;;4.30;99.90;;;;;;5025336;28;20030;-80
2022/04/18 05:32:16;;;;;;;18.38;9.82;;;4.60;99.90;;;;;;5025614;28;20137;-82
2022/04/18 05:34:42;;;;;;;15.75;9.85;;;4.80;99.90;;;;;;5025064;28;20474;-80
2022/04/18 05:37:07;;;;;;;16.73;8.95;;;5.00;99.90;;;;;;5024127;28;20037;-81
2022/04/18 05:39:34;;;;;;;14.75;9.05;;;5.20;99.90;;;;;;5025350;28;20034;-81
2022/04/18 05:41:59;;;;;;;18.60;10.73;;;5.50;99.90;;;;;;5026235;28;20025;-82
2022/04/18 05:44:26;;;;;;;18.85;9.30;;;5.80;99.90;;;;;;5025006;28;20034;-81
2022/04/18 05:46:51;;;;;;;15.73;9.68;;;6.10;99.90;;;;;;5007754;28;20026;-83
2022/04/18 05:49:17;;;;;;;17.92;9.35;;;6.30;99.90;;;;;;5007930;28;20446;-80
2022/04/18 05:51:43;;;;;;;16.90;9.88;;;6.60;99.90;;;;;;5006633;28;20037;-82
2022/04/18 05:54:09;;;;;;;20.90;10.77;;;6.90;99.90;;;;;;5007054;28;20038;-84
2022/04/18 05:56:35;;;;;;;16.48;9.45;;;7.20;99.90;;;;;;5007388;28;20030;-83
2022/04/18 05:59:00;;;;;;;15.88;9.32;;;7.50;99.90;;;;;;5008489;28;20046;-82
2022/04/18 06:01:28;;;;;;;16.60;10.20;;;7.70;99.90;;;;;;5007231;28;20085;-82
2022/04/18 06:03:55;;;;;;;16.60;9.52;;;8.00;99.90;;;;;;5004040;28;20022;-81
2022/04/18 06:06:21;;;;;;;16.05;10.13;;;8.40;99.90;;;;;;5005740;28;20029;-84
2022/04/18 06:08:46;;;;;;;16.20;9.70;;;8.70;99.90;;;;;;5005196;28;20113;-84
2022/04/18 06:11:12;;;;;;;17.45;8.73;;;9.10;99.90;;;;;;5005446;28;20030;-83
2022/04/18 06:13:37;;;;;;;14.57;8.00;;;9.60;99.90;;;;;;5012602;28;20010;-82
2022/04/18 06:16:03;;;;;;;15.68;9.00;;;10.00;99.90;;;;;;5014545;28;20031;-81
2022/04/18 06:18:29;;;;;;;16.08;8.05;;;10.40;99.90;;;;;;5014378;28;20030;-81
2022/04/18 06:20:54;;;;;;;15.63;7.82;;;10.70;98.00;;;;;;5013308;28;20037;-80
2022/04/18 06:23:20;;;;;;;12.35;7.53;;;11.00;92.60;;;;;;5002944;28;20339;-82
2022/04/18 06:25:45;;;;;;;11.35;7.82;;;11.20;89.80;;;;;;4997200;28;20046;-80
2022/04/18 06:28:14;;;;;;;12.75;7.88;;;11.30;88.60;;;;;;4997945;28;20034;-81
2022/04/18 06:30:42;;;;;;;12.98;7.75;;;11.30;86.30;;;;;;4997266;28;20022;-81
2022/04/18 06:33:13;;;;;;;13.80;7.95;;;11.20;86.00;;;;;;4997265;28;20027;-80
2022/04/18 06:35:41;;;;;;;14.00;7.88;;;11.10;83.60;;;;;;4997155;28;20077;-80
2022/04/18 06:38:07;;;;;;;11.60;7.28;;;11.20;85.00;;;;;;4996179;28;20125;-81
2022/04/18 06:40:33;;;;;;;13.00;8.52;;;11.30;82.10;;;;;;4995639;28;20470;-80
2022/04/18 06:42:59;;;;;;;13.82;7.68;;;11.40;82.80;;;;;;4998611;28;20030;-79
2022/04/18 06:45:26;;;;;;;13.82;7.55;;;11.60;81.90;;;;;;5005858;28;20088;-80
2022/04/18 06:47:52;;;;;;;14.23;7.75;;;11.90;81.50;;;;;;5014931;28;20026;-80
2022/04/18 06:50:17;;;;;;;12.38;7.07;;;12.10;78.80;;;;;;5015054;28;20470;-80
2022/04/18 06:52:46;;;;;;;11.65;6.97;;;12.20;76.90;;;;;;5014105;28;20440;-81
2022/04/18 06:55:12;;;;;;;15.10;7.82;;;12.40;76.10;;;;;;5015739;28;20486;-80
2022/04/18 06:57:38;;;;;;;14.15;7.50;;;12.60;75.30;;;;;;5015374;28;20025;-80
2022/04/18 07:00:06;;;;;;;12.45;6.95;;;12.80;72.90;;;;;;5016089;28;20090;-83
2022/04/18 07:02:32;;;;;;;11.85;7.00;;;13.10;72.80;;;;;;5029224;28;20033;-81
2022/04/18 07:04:57;;;;;;;13.38;7.43;;;13.40;71.40;;;;;;5019423;28;20026;-82
2022/04/18 07:07:23;;;;;;;13.55;8.13;;;13.70;69.60;;;;;;5018881;28;20026;-80
2022/04/18 07:09:49;;;;;;;11.73;7.40;;;13.90;69.20;;;;;;5018002;28;20068;-81
2022/04/18 07:12:14;;;;;;;12.27;8.10;;;14.00;68.30;;;;;;5019370;28;20010;-81
2022/04/18 07:14:41;;;;;;;11.05;7.63;;;14.20;66.70;;;;;;5018280;28;20084;-81
2022/04/18 07:17:07;;;;;;;11.82;6.95;;;14.40;67.40;;;;;;5021589;28;20018;-82
2022/04/18 07:19:33;;;;;;;12.45;7.68;;;14.80;64.90;;;;;;5021505;28;20026;-83
2022/04/18 07:21:58;;;;;;;11.35;7.88;;;15.00;63.20;;;;;;5020627;28;20030;-82
2022/04/18 07:24:24;;;;;;;11.82;6.88;;;15.10;62.30;;;;;;5021203;28;20397;-82
2022/04/18 07:26:50;;;;;;;12.93;7.47;;;15.40;63.00;;;;;;5020902;28;20026;-82
2022/04/18 07:29:15;;;;;;;10.52;6.47;;;15.60;61.30;;;;;;5023757;28;20049;-85
2022/04/18 07:31:41;;;;;;;12.15;7.00;;;15.70;60.10;;;;;;5024745;28;20411;-82
2022/04/18 07:34:07;;;;;;;8.75;5.53;;;16.00;58.30;;;;;;5026478;28;20037;-83
2022/04/18 07:36:32;;;;;;;9.93;6.07;;;16.20;58.60;;;;;;5025366;28;20030;-81
2022/04/18 07:39:00;;;;;;;7.75;5.45;;;16.40;58.40;;;;;;5016253;28;20397;-81
2022/04/18 07:41:28;;;;;;;9.68;6.45;;;16.50;57.50;;;;;;5015652;28;20034;-81
2022/04/18 07:43:55;;;;;;;8.93;5.95;;;16.60;57.80;;;;;;5018061;28;20034;-81
2022/04/18 07:46:21;;;;;;;9.30;5.88;;;16.70;57.10;;;;;;4999614;28;20281;-80
2022/04/18 07:48:50;;;;;;;7.38;5.25;;;16.80;55.60;;;;;;4997356;28;20037;-82
2022/04/18 07:51:32;;;;;;;8.52;5.43;;;16.90;54.40;;;;;;4997222;28;20022;-80
2022/04/18 07:53:58;;;;;;;9.88;5.95;;;17.20;55.80;;;;;;4997044;28;20475;-79
2022/04/18 07:56:25;;;;;;;8.23;5.22;;;17.50;54.60;;;;;;4997782;28;20486;-80
2022/04/18 07:58:51;;;;;;;9.02;4.85;;;17.90;53.30;;;;;;4999329;28;20030;-80
2022/04/18 08:01:18;;;;;;;10.32;5.35;;;18.00;52.10;;;;;;4997627;28;20026;-81
2022/04/18 08:03:44;;;;;;;8.10;5.38;;;18.10;52.50;;;;;;4997948;28;20030;-81
2022/04/18 08:06:10;;;;;;;8.40;5.15;;;18.10;50.60;;;;;;4997452;28;20026;-81
2022/04/18 08:08:39;;;;;;;7.60;5.20;;;18.20;51.40;;;;;;4998312;28;20037;-82
2022/04/18 08:11:05;;;;;;;6.82;4.35;;;18.30;50.80;;;;;;4997509;28;20029;-82
2022/04/18 08:13:30;;;;;;;7.68;4.82;;;18.70;49.80;;;;;;4999276;28;20018;-81
2022/04/18 08:15:57;;;;;;;7.97;4.93;;;18.80;50.10;;;;;;4998435;28;20033;-81
2022/04/18 08:18:22;;;;;;;7.03;5.00;;;19.00;49.40;;;;;;5000770;28;20022;-83
2022/04/18 08:20:49;;;;;;;6.70;4.50;;;19.10;49.60;;;;;;5000597;28;20029;-80
2022/04/18 08:23:14;;;;;;;5.80;4.55;;;19.30;48.70;;;;;;5000382;28;20034;-81
2022/04/18 08:25:40;;;;;;;8.40;5.05;;;19.30;48.10;;;;;;5000042;28;20364;-81
2022/04/18 08:28:06;;;;;;;6.75;3.97;;;19.40;48.30;;;;;;5002227;28;20026;-81
2022/04/18 08:30:32;;;;;;;7.35;4.30;;;19.40;48.40;;;;;;5000727;28;20080;-80
2022/04/18 08:32:58;;;;;;;7.40;4.20;;;19.70;48.00;;;;;;5002591;28;20065;-81
2022/04/18 08:35:23;;;;;;;6.00;4.10;;;20.00;47.80;;;;;;5003608;28;20042;-84
2022/04/18 08:37:50;;;;;;;5.30;3.92;;;20.30;47.40;;;;;;5000228;28;20041;-82
2022/04/18 08:40:18;;;;;;;7.03;4.32;;;20.30;46.60;;;;;;4998597;28;20050;-82
2022/04/18 08:42:43;;;;;;;6.07;4.15;;;20.40;45.60;;;;;;4998681;28;20050;-81
2022/04/18 08:45:11;;;;;;;6.85;4.13;;;20.50;45.70;;;;;;5006541;28;20469;-81
2022/04/18 08:53:10;;;;;;;6.63;4.47;;;20.20;45.70;;;;;;5017624;28;20434;-79
2022/04/18 08:55:36;;;;;;;8.18;4.30;;;20.30;45.20;;;;;;5019092;28;20078;-81
2022/04/18 08:58:01;;;;;;;5.93;3.95;;;20.30;44.90;;;;;;5020400;28;20026;-81
2022/04/18 09:00:28;;;;;;;6.68;4.20;;;20.60;45.10;;;;;;5021223;28;20032;-80
2022/04/18 09:02:54;;;;;;;6.88;4.03;;;20.70;45.30;;;;;;5021579;28;20026;-80
2022/04/18 09:05:21;;;;;;;6.28;3.97;;;20.50;44.20;;;;;;5027897;28;20025;-80
2022/04/18 09:08:01;;;;;;;7.18;4.40;;;20.60;44.60;;;;;;5021488;28;20022;-81
2022/04/18 09:10:27;;;;;;;8.63;4.65;;;20.80;44.30;;;;;;5016204;28;20347;-83
2022/04/18 09:13:00;;;;;;;7.40;4.10;;;20.80;44.00;;;;;;5012487;28;20049;-80
2022/04/18 09:15:42;;;;;;;8.30;4.50;;;21.00;43.70;;;;;;5013302;28;20370;-84
2022/04/18 09:18:18;;;;;;;6.95;4.38;;;21.00;43.90;;;;;;5013230;28;20029;-80
2022/04/18 09:20:48;;;;;;;6.20;4.45;;;21.10;42.40;;;;;;5012258;28;20131;-81
2022/04/18 09:23:27;;;;;;;10.50;4.88;;;21.00;42.60;;;;;;5011042;28;20030;-82
2022/04/18 09:26:02;;;;;;;6.88;4.63;;;21.20;42.70;;;;;;5014543;28;20141;-83
2022/04/18 09:28:34;;;;;;;6.63;4.22;;;21.40;40.90;;;;;;5015555;28;20061;-83
2022/04/18 09:31:05;;;;;;;6.50;4.57;;;21.50;41.50;;;;;;5014664;28;20050;-82
2022/04/18 09:33:41;;;;;;;7.20;4.00;;;21.70;41.40;;;;;;5015413;28;20026;-83
2022/04/18 09:36:22;;;;;;;4.95;3.70;;;21.70;39.40;;;;;;5014971;28;20075;-83
2022/04/18 09:38:52;;;;;;;6.47;4.47;;;21.60;41.70;;;;;;5017069;28;20083;-84
2022/04/18 09:41:29;;;;;;;4.90;3.88;;;21.60;40.20;;;;;;5019480;28;20026;-82
2022/04/18 09:43:56;;;;;;;4.50;3.20;;;21.70;38.80;;;;;;5018853;28;20038;-85
2022/04/18 09:46:22;;;;;;;4.57;3.35;;;21.60;39.50;;;;;;5019097;28;20030;-81
2022/04/18 09:48:49;;;;;;;4.70;3.78;;;21.80;39.20;;;;;;5017972;28;20033;-83
2022/04/18 09:51:25;;;;;;;5.00;3.42;;;21.60;39.10;;;;;;5019483;28;20128;-83
2022/04/18 09:53:53;;;;;;;5.22;2.97;;;21.70;40.10;;;;;;5019047;28;20520;-83
2022/04/18 09:56:21;;;;;;;4.82;2.90;;;21.80;39.80;;;;;;5020187;28;20391;-82
2022/04/18 09:58:46;;;;;;;6.45;3.13;;;21.80;37.50;;;;;;5019390;28;20037;-86
2022/04/18 10:01:13;;;;;;;12.20;3.35;;;21.70;38.50;;;;;;5018583;28;20030;-85
2022/04/18 10:03:40;;;;;;;3.35;2.33;;;21.60;39.40;;;;;;5019355;28;20037;-84
2022/04/18 10:06:07;;;;;;;4.13;2.20;;;21.40;37.60;;;;;;5019989;28;20121;-88
2022/04/18 10:08:34;;;;;;;2.97;2.13;;;21.60;35.20;;;;;;5020960;28;20025;-85
2022/04/18 10:11:03;;;;;;;4.75;2.75;;;21.80;36.30;;;;;;5019710;28;20014;-86
2022/04/18 10:13:30;;;;;;;3.03;2.17;;;21.70;33.90;;;;;;5021188;28;20025;-87
2022/04/18 10:15:58;;;;;;;6.18;2.47;;;21.50;34.50;;;;;;5022471;28;20026;-83
2022/04/18 10:18:24;;;;;;;2.97;2.28;;;21.30;37.10;;;;;;5018267;28;20067;-83
2022/04/18 10:20:58;;;;;;;2.78;2.05;;;21.20;36.90;;;;;;5018983;28;20029;-83
2022/04/18 10:23:58;;;;;;;2.90;1.80;;;20.90;34.00;;;;;;5017099;28;20034;-79
2022/04/18 10:26:43;;;;;;;3.17;2.28;;;20.70;36.00;;;;;;5017009;28;20034;-83
2022/04/18 10:29:13;;;;;;;4.18;2.28;;;20.60;37.00;;;;;;5019232;28;20034;-85
2022/04/18 10:31:41;;;;;;;3.58;2.45;;;20.90;38.00;;;;;;5018187;28;20021;-84
2022/04/18 10:34:11;;;;;;;4.78;2.15;;;21.10;39.70;;;;;;5018654;28;20034;-85
2022/04/18 10:36:50;;;;;;;3.25;2.20;;;21.20;37.90;;;;;;5018622;28;20148;-83
2022/04/18 10:39:16;;;;;;;3.58;2.28;;;21.40;38.80;;;;;;5019429;28;20033;-83
2022/04/18 10:41:47;;;;;;;3.38;2.42;;;21.60;37.30;;;;;;5019489;28;20037;-87
2022/04/18 10:44:17;;;;;;;3.17;2.20;;;22.00;38.20;;;;;;5018411;28;20049;-85
2022/04/18 10:47:03;;;;;;;2.90;2.03;;;21.80;36.30;;;;;;4999012;28;20030;-83
2022/04/18 10:49:33;;;;;;;5.22;2.72;;;21.60;38.10;;;;;;4998498;28;20049;-85
2022/04/18 10:52:08;;;;;;;3.58;2.20;;;21.40;39.60;;;;;;4998667;28;20022;-85
2022/04/18 10:54:34;;;;;;;;;;;21.50;38.50;;;;;;4999650;28;20034;-85
2022/04/18 10:57:11;;;;;;;3.67;2.38;;;21.60;38.60;;;;;;4998551;28;20255;-84
2022/04/18 10:59:42;;;;;;;4.20;2.33;;;21.70;37.20;;;;;;4998632;28;20030;-80
2022/04/18 11:02:28;;;;;;;4.97;2.60;;;21.50;38.30;;;;;;4997937;28;20022;-83
2022/04/18 11:04:54;;;;;;;5.55;2.47;;;21.60;38.00;;;;;;5000162;28;20034;-85
2022/04/18 11:07:36;;;;;;;3.97;2.30;;;21.70;37.60;;;;;;5004210;28;20034;-85
2022/04/18 11:10:02;;;;;;;5.65;2.53;;;22.00;38.80;;;;;;5005313;28;20022;-83
2022/04/18 11:12:33;;;;;;;5.40;2.95;;;22.10;37.20;;;;;;4994416;28;20085;-85
2022/04/18 11:15:04;;;;;;;7.18;2.50;;;22.00;37.80;;;;;;4997159;28;20045;-84
2022/04/18 11:17:31;;;;;;;3.22;2.42;;;22.00;37.90;;;;;;4994916;28;20027;-81
2022/04/18 11:20:17;;;;;;;4.80;2.72;;;22.10;37.70;;;;;;4994361;28;20038;-82
2022/04/18 11:23:02;;;;;;;4.75;2.35;;;21.90;37.90;;;;;;4994887;28;20033;-83
2022/04/18 11:25:55;;;;;;;3.85;2.75;;;21.80;38.10;;;;;;4993403;28;20469;-85
2022/04/18 11:28:21;;;;;;;4.53;2.90;;;22.00;38.40;;;;;;4994608;28;20104;-82
2022/04/18 11:30:47;;;;;;;4.65;2.67;;;21.70;38.10;;;;;;4994332;28;20433;-82
2022/04/18 11:33:13;;;;;;;6.72;2.70;;;21.90;38.80;;;;;;4994322;28;20109;-84
2022/04/18 11:35:39;;;;;;;5.90;2.80;;;22.00;38.00;;;;;;4995968;28;20447;-82
2022/04/18 11:38:10;;;;;;;4.25;2.40;;;21.90;37.60;;;;;;4994148;28;20031;-84
2022/04/18 11:40:40;;;;;;;3.85;2.80;;;21.60;38.70;;;;;;4996032;28;20036;-82
2022/04/18 11:43:16;;;;;;;3.67;2.40;;;21.50;37.90;;;;;;4993816;28;20441;-85
2022/04/18 11:45:43;;;;;;;5.00;2.03;;;21.70;38.30;;;;;;5007803;28;20426;-83
2022/04/18 11:48:12;;;;;;;2.90;1.95;;;21.80;37.00;;;;;;5015034;28;20049;-85
2022/04/18 11:50:41;;;;;;;2.88;2.20;;;21.70;37.10;;;;;;5015284;28;20053;-87
2022/04/18 11:53:08;;;;;;;5.03;2.17;;;21.90;36.70;;;;;;5014964;28;20032;-83
2022/04/18 11:55:42;;;;;;;3.20;2.05;;;21.70;37.30;;;;;;5014825;28;20474;-83
2022/04/18 11:58:11;;;;;;;3.75;2.20;;;21.50;37.50;;;;;;5014790;28;20033;-85
2022/04/18 12:08:50;;;;;;;3.60;2.22;;;22.00;38.70;;;;;;5015494;28;20105;-83
2022/04/18 12:11:16;;;;;;;3.25;2.40;;;22.20;38.30;;;;;;5015487;28;20081;-87
2022/04/18 12:13:48;;;;;;;2.92;2.17;;;22.60;39.60;;;;;;5015903;28;20048;-82
2022/04/18 12:16:17;;;;;;;5.60;2.20;;;22.80;38.20;;;;;;5015320;28;20429;-85
2022/04/18 12:18:44;;;;;;;3.95;2.10;;;22.40;36.60;;;;;;5014669;28;20032;-86
2022/04/18 12:21:12;;;;;;;5.15;2.60;;;21.90;37.30;;;;;;5016473;28;20049;-85
2022/04/18 12:23:38;;;;;;;2.60;2.10;;;21.80;36.50;;;;;;5015723;28;20029;-87
2022/04/18 12:26:10;;;;;;;3.35;2.50;;;21.90;37.60;;;;;;5016163;28;20034;-84
2022/04/18 12:28:37;;;;;;;2.90;2.17;;;21.90;38.40;;;;;;5014936;28;20033;-85
2022/04/18 12:31:07;;;;;;;3.65;2.67;;;22.00;38.40;;;;;;5015443;28;20109;-84
2022/04/18 12:33:33;;;;;;;5.15;2.38;;;22.00;38.40;;;;;;5014689;28;20096;-85
2022/04/18 12:36:00;;;;;;;3.30;2.20;;;22.10;40.60;;;;;;5014423;28;20481;-86
2022/04/18 12:38:39;;;;;;;2.75;1.75;;;22.30;39.10;;;;;;5016534;28;20022;-80
2022/04/18 12:41:04;;;;;;;2.58;2.10;;;22.40;37.60;;;;;;5015263;28;20033;-85
2022/04/18 12:43:32;;;;;;;3.10;1.63;;;22.50;39.00;;;;;;5015201;28;20026;-84
2022/04/18 12:46:08;;;;;;;2.72;1.80;;;22.50;38.70;;;;;;5014736;28;20026;-85
2022/04/18 12:48:36;;;;;;;3.85;2.08;;;22.70;38.00;;;;;;5014849;28;20048;-88
2022/04/18 12:51:04;;;;;;;3.40;1.55;;;22.80;36.90;;;;;;5016773;28;20077;-83
2022/04/18 12:53:51;;;;;;;3.00;1.85;;;22.60;37.50;;;;;;5016362;28;20022;-85
2022/04/18 12:56:21;;;;;;;2.75;1.48;;;22.50;36.20;;;;;;5014247;28;20018;-86
2022/04/18 12:59:04;;;;;;;3.72;1.88;;;22.20;36.40;;;;;;5013447;28;20022;-86
2022/04/18 13:01:35;;;;;;;2.25;1.27;;;22.10;39.30;;;;;;5015999;28;20084;-86
2022/04/18 13:04:03;;;;;;;3.00;1.77;;;22.30;36.70;;;;;;5016432;28;20045;-84
2022/04/18 13:06:34;;;;;;;2.33;1.55;;;22.10;35.90;;;;;;5031159;28;20034;-83
2022/04/18 13:09:10;;;;;;;2.50;1.83;;;22.10;36.80;;;;;;5032947;28;20026;-83